sensor_id;sensor_type;location;lat;lon;timestamp;P1;durP1;ratioP1;P2;durP2;ratioP2
40044;SDS011;25735;48.122;11.422;2022-10-16T00:01:18;2.13;;;1.48;;
40044;SDS011;25735;48.122;11.422;2022-10-16T00:03:44;1.90;;;1.60;;
40044;SDS011;25735;48.122;11.422;2022-10-16T00:06:10;2.35;;;1.42;;
40044;SDS011;25735;48.122;11.422;2022-10-16T00:08:35;0.88;;;0.88;;
40044;SDS011;25735;48.122;11.422;2022-10-16T00:11:02;1.40;;;1.17;;
40044;SDS011;25735;48.122;11.422;2022-10-16T00:13:28;3.15;;;1.20;;
40044;SDS011;25735;48.122;11.422;2022-10-16T00:15:54;1.02;;;0.93;;
40044;SDS011;25735;48.122;11.422;2022-10-16T00:18:20;2.08;;;1.27;;
40044;SDS011;25735;48.122;11.422;2022-10-16T00:20:45;4.18;;;1.30;;
40044;SDS011;25735;48.122;11.422;2022-10-16T00:23:10;1.97;;;1.43;;
40044;SDS011;25735;48.122;11.422;2022-10-16T00:25:35;1.83;;;1.40;;
40044;SDS011;25735;48.122;11.422;2022-10-16T00:28:01;1.75;;;1.20;;
40044;SDS011;25735;48.122;11.422;2022-10-16T00:30:26;5.82;;;1.88;;
40044;SDS011;25735;48.122;11.422;2022-10-16T00:32:52;2.63;;;1.58;;
40044;SDS011;25735;48.122;11.422;2022-10-16T00:35:18;3.50;;;1.20;;
40044;SDS011;25735;48.122;11.422;2022-10-16T00:37:43;2.57;;;1.47;;
40044;SDS011;25735;48.122;11.422;2022-10-16T00:40:08;4.90;;;1.40;;
40044;SDS011;25735;48.122;11.422;2022-10-16T00:42:33;2.40;;;1.30;;
40044;SDS011;25735;48.122;11.422;2022-10-16T00:44:59;2.10;;;1.03;;
40044;SDS011;25735;48.122;11.422;2022-10-16T00:47:26;1.87;;;1.57;;
40044;SDS011;25735;48.122;11.422;2022-10-16T00:49:53;2.70;;;1.42;;
40044;SDS011;25735;48.122;11.422;2022-10-16T00:52:20;2.63;;;1.30;;
40044;SDS011;25735;48.122;11.422;2022-10-16T00:54:46;1.25;;;1.02;;
40044;SDS011;25735;48.122;11.422;2022-10-16T00:57:11;3.20;;;1.10;;
40044;SDS011;25735;48.122;11.422;2022-10-16T00:59:40;2.78;;;1.38;;
40044;SDS011;25735;48.122;11.422;2022-10-16T01:02:07;1.27;;;1.15;;
40044;SDS011;25735;48.122;11.422;2022-10-16T01:04:52;1.50;;;1.20;;
40044;SDS011;25735;48.122;11.422;2022-10-16T01:10:06;5.57;;;2.10;;
40044;SDS011;25735;48.122;11.422;2022-10-16T01:12:47;2.15;;;1.17;;
40044;SDS011;25735;48.122;11.422;2022-10-16T01:17:51;2.10;;;1.25;;
40044;SDS011;25735;48.122;11.422;2022-10-16T01:20:29;1.85;;;1.10;;
40044;SDS011;25735;48.122;11.422;2022-10-16T01:23:04;4.80;;;1.63;;
40044;SDS011;25735;48.122;11.422;2022-10-16T01:25:33;1.77;;;1.50;;
40044;SDS011;25735;48.122;11.422;2022-10-16T01:28:02;2.72;;;1.20;;
40044;SDS011;25735;48.122;11.422;2022-10-16T01:30:30;2.08;;;1.30;;
40044;SDS011;25735;48.122;11.422;2022-10-16T01:32:59;1.63;;;1.15;;
40044;SDS011;25735;48.122;11.422;2022-10-16T01:35:27;2.08;;;1.50;;
40044;SDS011;25735;48.122;11.422;2022-10-16T01:38:00;3.22;;;1.98;;
40044;SDS011;25735;48.122;11.422;2022-10-16T01:40:28;3.08;;;2.20;;
40044;SDS011;25735;48.122;11.422;2022-10-16T01:42:56;3.17;;;2.38;;
40044;SDS011;25735;48.122;11.422;2022-10-16T01:45:24;2.53;;;1.35;;
40044;SDS011;25735;48.122;11.422;2022-10-16T01:47:49;1.40;;;1.10;;
40044;SDS011;25735;48.122;11.422;2022-10-16T01:50:16;1.90;;;1.33;;
40044;SDS011;25735;48.122;11.422;2022-10-16T01:52:43;1.83;;;1.50;;
40044;SDS011;25735;48.122;11.422;2022-10-16T01:55:09;3.35;;;1.20;;
40044;SDS011;25735;48.122;11.422;2022-10-16T01:57:36;2.75;;;1.50;;
40044;SDS011;25735;48.122;11.422;2022-10-16T02:00:05;1.40;;;1.25;;
40044;SDS011;25735;48.122;11.422;2022-10-16T02:02:32;2.15;;;1.38;;
40044;SDS011;25735;48.122;11.422;2022-10-16T02:04:59;1.40;;;1.13;;
40044;SDS011;25735;48.122;11.422;2022-10-16T02:07:26;1.95;;;1.48;;
40044;SDS011;25735;48.122;11.422;2022-10-16T02:09:51;3.30;;;1.10;;
40044;SDS011;25735;48.122;11.422;2022-10-16T02:12:30;4.30;;;1.27;;
40044;SDS011;25735;48.122;11.422;2022-10-16T02:14:56;1.95;;;1.52;;
40044;SDS011;25735;48.122;11.422;2022-10-16T02:17:22;1.25;;;1.15;;
40044;SDS011;25735;48.122;11.422;2022-10-16T02:19:48;2.72;;;1.33;;
40044;SDS011;25735;48.122;11.422;2022-10-16T02:22:19;2.42;;;1.25;;
40044;SDS011;25735;48.122;11.422;2022-10-16T02:25:06;2.55;;;1.40;;
40044;SDS011;25735;48.122;11.422;2022-10-16T02:27:34;2.03;;;1.30;;
40044;SDS011;25735;48.122;11.422;2022-10-16T02:30:09;3.55;;;1.50;;
40044;SDS011;25735;48.122;11.422;2022-10-16T02:32:37;3.92;;;1.02;;
40044;SDS011;25735;48.122;11.422;2022-10-16T02:35:03;1.58;;;1.38;;
40044;SDS011;25735;48.122;11.422;2022-10-16T02:37:29;2.55;;;1.00;;
40044;SDS011;25735;48.122;11.422;2022-10-16T02:39:55;1.50;;;1.40;;
40044;SDS011;25735;48.122;11.422;2022-10-16T02:42:20;1.63;;;1.38;;
40044;SDS011;25735;48.122;11.422;2022-10-16T02:44:45;1.48;;;1.38;;
40044;SDS011;25735;48.122;11.422;2022-10-16T02:47:11;1.57;;;1.30;;
40044;SDS011;25735;48.122;11.422;2022-10-16T02:49:36;1.60;;;1.30;;
40044;SDS011;25735;48.122;11.422;2022-10-16T02:52:02;4.50;;;1.43;;
40044;SDS011;25735;48.122;11.422;2022-10-16T02:54:27;1.50;;;1.40;;
40044;SDS011;25735;48.122;11.422;2022-10-16T02:56:52;1.53;;;1.20;;
40044;SDS011;25735;48.122;11.422;2022-10-16T02:59:17;3.57;;;1.17;;
40044;SDS011;25735;48.122;11.422;2022-10-16T03:01:42;2.07;;;1.40;;
40044;SDS011;25735;48.122;11.422;2022-10-16T03:04:07;4.43;;;1.33;;
40044;SDS011;25735;48.122;11.422;2022-10-16T03:06:33;1.77;;;1.20;;
40044;SDS011;25735;48.122;11.422;2022-10-16T03:08:58;4.13;;;1.45;;
40044;SDS011;25735;48.122;11.422;2022-10-16T03:11:23;2.10;;;1.23;;
40044;SDS011;25735;48.122;11.422;2022-10-16T03:13:48;3.80;;;1.27;;
40044;SDS011;25735;48.122;11.422;2022-10-16T03:16:13;1.50;;;1.30;;
40044;SDS011;25735;48.122;11.422;2022-10-16T03:18:38;1.65;;;1.30;;
40044;SDS011;25735;48.122;11.422;2022-10-16T03:21:04;2.72;;;1.08;;
40044;SDS011;25735;48.122;11.422;2022-10-16T03:23:29;0.98;;;0.95;;
40044;SDS011;25735;48.122;11.422;2022-10-16T03:25:54;4.40;;;1.27;;
40044;SDS011;25735;48.122;11.422;2022-10-16T03:28:19;1.33;;;1.03;;
40044;SDS011;25735;48.122;11.422;2022-10-16T03:30:44;1.20;;;1.10;;
40044;SDS011;25735;48.122;11.422;2022-10-16T03:33:10;1.42;;;1.02;;
40044;SDS011;25735;48.122;11.422;2022-10-16T03:35:35;2.10;;;1.23;;
40044;SDS011;25735;48.122;11.422;2022-10-16T03:38:00;2.00;;;0.85;;
40044;SDS011;25735;48.122;11.422;2022-10-16T03:40:25;1.90;;;1.03;;
40044;SDS011;25735;48.122;11.422;2022-10-16T03:42:50;1.67;;;0.90;;
40044;SDS011;25735;48.122;11.422;2022-10-16T03:45:16;1.60;;;1.10;;
40044;SDS011;25735;48.122;11.422;2022-10-16T03:47:41;1.05;;;0.95;;
40044;SDS011;25735;48.122;11.422;2022-10-16T03:50:06;1.33;;;1.00;;
40044;SDS011;25735;48.122;11.422;2022-10-16T03:52:32;2.28;;;0.95;;
40044;SDS011;25735;48.122;11.422;2022-10-16T03:54:57;1.45;;;0.85;;
40044;SDS011;25735;48.122;11.422;2022-10-16T03:57:23;5.93;;;0.87;;
40044;SDS011;25735;48.122;11.422;2022-10-16T03:59:48;1.87;;;1.10;;
40044;SDS011;25735;48.122;11.422;2022-10-16T04:02:13;3.23;;;1.10;;
40044;SDS011;25735;48.122;11.422;2022-10-16T04:04:38;3.93;;;0.73;;
40044;SDS011;25735;48.122;11.422;2022-10-16T04:07:03;1.70;;;1.08;;
40044;SDS011;25735;48.122;11.422;2022-10-16T04:09:29;4.87;;;1.27;;
40044;SDS011;25735;48.122;11.422;2022-10-16T04:11:54;6.23;;;1.63;;
40044;SDS011;25735;48.122;11.422;2022-10-16T04:14:19;1.80;;;1.20;;
40044;SDS011;25735;48.122;11.422;2022-10-16T04:16:44;1.73;;;1.23;;
40044;SDS011;25735;48.122;11.422;2022-10-16T04:19:10;2.90;;;1.60;;
40044;SDS011;25735;48.122;11.422;2022-10-16T04:21:35;4.07;;;1.10;;
40044;SDS011;25735;48.122;11.422;2022-10-16T04:24:00;1.08;;;0.98;;
40044;SDS011;25735;48.122;11.422;2022-10-16T04:26:26;2.70;;;0.97;;
40044;SDS011;25735;48.122;11.422;2022-10-16T04:28:51;0.80;;;0.80;;
40044;SDS011;25735;48.122;11.422;2022-10-16T04:31:16;1.10;;;0.80;;
40044;SDS011;25735;48.122;11.422;2022-10-16T04:33:44;1.17;;;1.00;;
40044;SDS011;25735;48.122;11.422;2022-10-16T04:36:09;2.22;;;1.20;;
40044;SDS011;25735;48.122;11.422;2022-10-16T04:38:35;1.20;;;1.07;;
40044;SDS011;25735;48.122;11.422;2022-10-16T04:41:02;1.95;;;1.10;;
40044;SDS011;25735;48.122;11.422;2022-10-16T04:43:27;1.43;;;1.10;;
40044;SDS011;25735;48.122;11.422;2022-10-16T04:45:52;4.97;;;0.97;;
40044;SDS011;25735;48.122;11.422;2022-10-16T04:48:19;6.20;;;1.13;;
40044;SDS011;25735;48.122;11.422;2022-10-16T04:50:44;2.67;;;1.33;;
40044;SDS011;25735;48.122;11.422;2022-10-16T04:53:09;1.50;;;1.07;;
40044;SDS011;25735;48.122;11.422;2022-10-16T04:55:35;2.63;;;1.20;;
40044;SDS011;25735;48.122;11.422;2022-10-16T04:58:00;1.00;;;0.90;;
40044;SDS011;25735;48.122;11.422;2022-10-16T05:00:25;1.10;;;1.00;;
40044;SDS011;25735;48.122;11.422;2022-10-16T05:02:50;1.40;;;1.30;;
40044;SDS011;25735;48.122;11.422;2022-10-16T05:05:15;2.28;;;1.30;;
40044;SDS011;25735;48.122;11.422;2022-10-16T05:07:41;1.20;;;1.10;;
40044;SDS011;25735;48.122;11.422;2022-10-16T05:10:06;1.97;;;1.20;;
40044;SDS011;25735;48.122;11.422;2022-10-16T05:12:31;1.92;;;1.30;;
40044;SDS011;25735;48.122;11.422;2022-10-16T05:14:56;1.60;;;1.10;;
40044;SDS011;25735;48.122;11.422;2022-10-16T05:17:23;2.13;;;1.25;;
40044;SDS011;25735;48.122;11.422;2022-10-16T05:19:49;1.25;;;1.15;;
40044;SDS011;25735;48.122;11.422;2022-10-16T05:22:14;2.00;;;1.13;;
40044;SDS011;25735;48.122;11.422;2022-10-16T05:24:39;1.50;;;0.90;;
40044;SDS011;25735;48.122;11.422;2022-10-16T05:27:04;1.57;;;1.17;;
40044;SDS011;25735;48.122;11.422;2022-10-16T05:29:29;2.33;;;1.23;;
40044;SDS011;25735;48.122;11.422;2022-10-16T05:31:55;1.98;;;1.10;;
40044;SDS011;25735;48.122;11.422;2022-10-16T05:34:20;1.00;;;0.90;;
40044;SDS011;25735;48.122;11.422;2022-10-16T05:36:46;2.42;;;0.85;;
40044;SDS011;25735;48.122;11.422;2022-10-16T05:39:11;3.30;;;1.00;;
40044;SDS011;25735;48.122;11.422;2022-10-16T05:41:36;2.28;;;1.23;;
40044;SDS011;25735;48.122;11.422;2022-10-16T05:44:05;2.17;;;1.10;;
40044;SDS011;25735;48.122;11.422;2022-10-16T05:46:30;1.13;;;1.00;;
40044;SDS011;25735;48.122;11.422;2022-10-16T05:48:56;1.85;;;0.98;;
40044;SDS011;25735;48.122;11.422;2022-10-16T05:51:21;4.22;;;1.30;;
40044;SDS011;25735;48.122;11.422;2022-10-16T05:53:46;1.30;;;1.20;;
40044;SDS011;25735;48.122;11.422;2022-10-16T05:56:11;1.38;;;0.90;;
40044;SDS011;25735;48.122;11.422;2022-10-16T05:58:37;2.47;;;1.50;;
40044;SDS011;25735;48.122;11.422;2022-10-16T06:01:14;4.53;;;1.52;;
40044;SDS011;25735;48.122;11.422;2022-10-16T06:03:40;3.28;;;1.40;;
40044;SDS011;25735;48.122;11.422;2022-10-16T06:06:15;3.45;;;1.35;;
40044;SDS011;25735;48.122;11.422;2022-10-16T06:08:41;3.55;;;1.92;;
40044;SDS011;25735;48.122;11.422;2022-10-16T06:11:08;1.38;;;1.20;;
40044;SDS011;25735;48.122;11.422;2022-10-16T06:13:33;1.90;;;1.10;;
40044;SDS011;25735;48.122;11.422;2022-10-16T06:15:59;2.03;;;1.43;;
40044;SDS011;25735;48.122;11.422;2022-10-16T06:18:24;1.83;;;1.08;;
40044;SDS011;25735;48.122;11.422;2022-10-16T06:20:49;1.92;;;1.50;;
40044;SDS011;25735;48.122;11.422;2022-10-16T06:23:15;3.47;;;1.77;;
40044;SDS011;25735;48.122;11.422;2022-10-16T06:25:40;1.70;;;1.17;;
40044;SDS011;25735;48.122;11.422;2022-10-16T06:28:05;1.73;;;1.23;;
40044;SDS011;25735;48.122;11.422;2022-10-16T06:30:30;1.83;;;1.23;;
40044;SDS011;25735;48.122;11.422;2022-10-16T06:32:55;3.17;;;1.13;;
40044;SDS011;25735;48.122;11.422;2022-10-16T06:35:20;3.63;;;1.47;;
40044;SDS011;25735;48.122;11.422;2022-10-16T06:37:46;2.45;;;1.23;;
40044;SDS011;25735;48.122;11.422;2022-10-16T06:40:11;4.00;;;1.20;;
40044;SDS011;25735;48.122;11.422;2022-10-16T06:42:36;2.27;;;1.67;;
40044;SDS011;25735;48.122;11.422;2022-10-16T06:45:01;5.43;;;1.43;;
40044;SDS011;25735;48.122;11.422;2022-10-16T06:47:27;2.57;;;1.43;;
40044;SDS011;25735;48.122;11.422;2022-10-16T06:49:52;4.45;;;1.10;;
40044;SDS011;25735;48.122;11.422;2022-10-16T06:52:17;1.67;;;1.40;;
40044;SDS011;25735;48.122;11.422;2022-10-16T06:54:42;1.90;;;1.10;;
40044;SDS011;25735;48.122;11.422;2022-10-16T06:57:07;1.23;;;1.13;;
40044;SDS011;25735;48.122;11.422;2022-10-16T06:59:32;1.87;;;1.17;;
40044;SDS011;25735;48.122;11.422;2022-10-16T07:01:58;3.67;;;1.40;;
40044;SDS011;25735;48.122;11.422;2022-10-16T07:04:23;3.60;;;1.43;;
40044;SDS011;25735;48.122;11.422;2022-10-16T07:06:48;1.50;;;1.37;;
40044;SDS011;25735;48.122;11.422;2022-10-16T07:09:13;1.37;;;1.27;;
40044;SDS011;25735;48.122;11.422;2022-10-16T07:11:39;1.43;;;1.23;;
40044;SDS011;25735;48.122;11.422;2022-10-16T07:14:04;1.33;;;1.20;;
40044;SDS011;25735;48.122;11.422;2022-10-16T07:16:30;1.65;;;1.10;;
40044;SDS011;25735;48.122;11.422;2022-10-16T07:19:00;1.10;;;1.00;;
40044;SDS011;25735;48.122;11.422;2022-10-16T07:21:27;2.65;;;1.10;;
40044;SDS011;25735;48.122;11.422;2022-10-16T07:23:54;1.83;;;1.48;;
40044;SDS011;25735;48.122;11.422;2022-10-16T07:26:19;5.57;;;1.33;;
40044;SDS011;25735;48.122;11.422;2022-10-16T07:28:45;1.40;;;1.30;;
40044;SDS011;25735;48.122;11.422;2022-10-16T07:31:11;2.10;;;1.17;;
40044;SDS011;25735;48.122;11.422;2022-10-16T07:33:37;1.90;;;1.40;;
40044;SDS011;25735;48.122;11.422;2022-10-16T07:36:02;5.28;;;1.17;;
40044;SDS011;25735;48.122;11.422;2022-10-16T07:38:28;1.40;;;1.30;;
40044;SDS011;25735;48.122;11.422;2022-10-16T07:40:59;1.87;;;1.70;;
40044;SDS011;25735;48.122;11.422;2022-10-16T07:43:25;3.15;;;1.63;;
40044;SDS011;25735;48.122;11.422;2022-10-16T07:45:51;3.83;;;1.30;;
40044;SDS011;25735;48.122;11.422;2022-10-16T07:48:16;2.45;;;1.50;;
40044;SDS011;25735;48.122;11.422;2022-10-16T07:50:42;3.00;;;1.50;;
40044;SDS011;25735;48.122;11.422;2022-10-16T07:53:07;1.90;;;1.40;;
40044;SDS011;25735;48.122;11.422;2022-10-16T07:55:32;1.40;;;1.30;;
40044;SDS011;25735;48.122;11.422;2022-10-16T07:57:57;1.80;;;1.45;;
40044;SDS011;25735;48.122;11.422;2022-10-16T08:00:23;1.63;;;1.53;;
40044;SDS011;25735;48.122;11.422;2022-10-16T08:02:48;1.63;;;1.50;;
40044;SDS011;25735;48.122;11.422;2022-10-16T08:05:13;1.83;;;1.33;;
40044;SDS011;25735;48.122;11.422;2022-10-16T08:07:38;3.40;;;1.70;;
40044;SDS011;25735;48.122;11.422;2022-10-16T08:10:04;4.33;;;1.80;;
40044;SDS011;25735;48.122;11.422;2022-10-16T08:12:29;3.45;;;1.38;;
40044;SDS011;25735;48.122;11.422;2022-10-16T08:14:54;1.63;;;1.53;;
40044;SDS011;25735;48.122;11.422;2022-10-16T08:17:19;1.97;;;1.53;;
40044;SDS011;25735;48.122;11.422;2022-10-16T08:19:45;2.27;;;2.00;;
40044;SDS011;25735;48.122;11.422;2022-10-16T08:22:10;2.60;;;1.75;;
40044;SDS011;25735;48.122;11.422;2022-10-16T08:24:35;2.00;;;1.67;;
40044;SDS011;25735;48.122;11.422;2022-10-16T08:27:01;4.22;;;2.00;;
40044;SDS011;25735;48.122;11.422;2022-10-16T08:29:27;4.45;;;2.00;;
40044;SDS011;25735;48.122;11.422;2022-10-16T08:31:52;2.10;;;1.60;;
40044;SDS011;25735;48.122;11.422;2022-10-16T08:34:17;1.85;;;1.75;;
40044;SDS011;25735;48.122;11.422;2022-10-16T08:36:42;2.63;;;1.97;;
40044;SDS011;25735;48.122;11.422;2022-10-16T08:39:08;3.33;;;1.83;;
40044;SDS011;25735;48.122;11.422;2022-10-16T08:46:33;2.05;;;1.80;;
40044;SDS011;25735;48.122;11.422;2022-10-16T08:49:01;2.83;;;1.88;;
40044;SDS011;25735;48.122;11.422;2022-10-16T08:51:28;1.65;;;1.50;;
40044;SDS011;25735;48.122;11.422;2022-10-16T08:53:55;2.15;;;1.48;;
40044;SDS011;25735;48.122;11.422;2022-10-16T08:56:21;4.65;;;2.00;;
40044;SDS011;25735;48.122;11.422;2022-10-16T08:58:47;1.90;;;1.70;;
40044;SDS011;25735;48.122;11.422;2022-10-16T09:01:14;2.53;;;1.80;;
40044;SDS011;25735;48.122;11.422;2022-10-16T09:13:50;1.92;;;1.60;;
40044;SDS011;25735;48.122;11.422;2022-10-16T09:16:22;1.88;;;1.65;;
40044;SDS011;25735;48.122;11.422;2022-10-16T09:21:30;3.65;;;1.92;;
40044;SDS011;25735;48.122;11.422;2022-10-16T09:23:57;1.52;;;1.42;;
40044;SDS011;25735;48.122;11.422;2022-10-16T09:26:23;2.88;;;1.67;;
40044;SDS011;25735;48.122;11.422;2022-10-16T09:28:48;1.93;;;1.73;;
40044;SDS011;25735;48.122;11.422;2022-10-16T09:31:17;1.70;;;1.60;;
40044;SDS011;25735;48.122;11.422;2022-10-16T09:33:43;4.10;;;1.45;;
40044;SDS011;25735;48.122;11.422;2022-10-16T09:36:09;1.83;;;1.70;;
40044;SDS011;25735;48.122;11.422;2022-10-16T09:38:35;6.57;;;1.60;;
40044;SDS011;25735;48.122;11.422;2022-10-16T09:41:02;1.65;;;1.55;;
40044;SDS011;25735;48.122;11.422;2022-10-16T09:43:33;2.20;;;1.70;;
40044;SDS011;25735;48.122;11.422;2022-10-16T09:46:03;4.15;;;1.50;;
40044;SDS011;25735;48.122;11.422;2022-10-16T09:48:33;2.47;;;1.42;;
40044;SDS011;25735;48.122;11.422;2022-10-16T09:51:01;1.75;;;1.35;;
40044;SDS011;25735;48.122;11.422;2022-10-16T09:53:26;2.45;;;1.98;;
40044;SDS011;25735;48.122;11.422;2022-10-16T09:56:02;1.38;;;1.27;;
40044;SDS011;25735;48.122;11.422;2022-10-16T09:58:30;1.33;;;1.23;;
40044;SDS011;25735;48.122;11.422;2022-10-16T10:00:55;1.20;;;1.10;;
40044;SDS011;25735;48.122;11.422;2022-10-16T10:03:30;4.23;;;0.90;;
40044;SDS011;25735;48.122;11.422;2022-10-16T10:05:57;1.92;;;1.20;;
40044;SDS011;25735;48.122;11.422;2022-10-16T10:08:23;1.55;;;1.00;;
40044;SDS011;25735;48.122;11.422;2022-10-16T10:10:48;1.85;;;1.20;;
40044;SDS011;25735;48.122;11.422;2022-10-16T10:13:21;1.05;;;1.00;;
40044;SDS011;25735;48.122;11.422;2022-10-16T10:15:47;1.50;;;1.00;;
40044;SDS011;25735;48.122;11.422;2022-10-16T10:18:19;1.33;;;0.93;;
40044;SDS011;25735;48.122;11.422;2022-10-16T10:20:45;1.27;;;1.05;;
40044;SDS011;25735;48.122;11.422;2022-10-16T10:23:23;2.10;;;1.10;;
40044;SDS011;25735;48.122;11.422;2022-10-16T10:31:03;1.33;;;1.20;;
40044;SDS011;25735;48.122;11.422;2022-10-16T10:33:47;1.92;;;1.27;;
40044;SDS011;25735;48.122;11.422;2022-10-16T10:38:48;1.40;;;1.30;;
40044;SDS011;25735;48.122;11.422;2022-10-16T10:41:18;2.55;;;1.30;;
40044;SDS011;25735;48.122;11.422;2022-10-16T10:46:45;0.82;;;0.82;;
40044;SDS011;25735;48.122;11.422;2022-10-16T10:54:46;0.80;;;0.75;;
40044;SDS011;25735;48.122;11.422;2022-10-16T11:02:13;1.10;;;1.00;;
40044;SDS011;25735;48.122;11.422;2022-10-16T11:04:54;2.75;;;1.02;;
40044;SDS011;25735;48.122;11.422;2022-10-16T11:07:27;1.38;;;1.25;;
40044;SDS011;25735;48.122;11.422;2022-10-16T11:09:54;4.63;;;1.20;;
40044;SDS011;25735;48.122;11.422;2022-10-16T11:12:26;3.00;;;1.30;;
40044;SDS011;25735;48.122;11.422;2022-10-16T11:15:07;1.27;;;1.13;;
40044;SDS011;25735;48.122;11.422;2022-10-16T11:17:40;2.80;;;1.50;;
40044;SDS011;25735;48.122;11.422;2022-10-16T11:22:46;1.45;;;1.30;;
40044;SDS011;25735;48.122;11.422;2022-10-16T11:27:59;1.30;;;1.20;;
40044;SDS011;25735;48.122;11.422;2022-10-16T11:30:27;1.23;;;1.13;;
40044;SDS011;25735;48.122;11.422;2022-10-16T11:35:25;1.02;;;1.02;;
40044;SDS011;25735;48.122;11.422;2022-10-16T11:37:52;1.15;;;0.70;;
40044;SDS011;25735;48.122;11.422;2022-10-16T11:40:22;2.38;;;1.02;;
40044;SDS011;25735;48.122;11.422;2022-10-16T11:42:50;1.83;;;0.70;;
40044;SDS011;25735;48.122;11.422;2022-10-16T11:48:02;1.08;;;0.98;;
40044;SDS011;25735;48.122;11.422;2022-10-16T11:50:33;0.90;;;0.70;;
40044;SDS011;25735;48.122;11.422;2022-10-16T11:53:12;1.85;;;0.98;;
40044;SDS011;25735;48.122;11.422;2022-10-16T11:55:39;0.82;;;0.70;;
40044;SDS011;25735;48.122;11.422;2022-10-16T12:03:38;4.57;;;0.73;;
40044;SDS011;25735;48.122;11.422;2022-10-16T12:06:25;0.60;;;0.60;;
40044;SDS011;25735;48.122;11.422;2022-10-16T12:08:53;0.75;;;0.47;;
40044;SDS011;25735;48.122;11.422;2022-10-16T12:11:23;1.27;;;0.77;;
40044;SDS011;25735;48.122;11.422;2022-10-16T12:13:49;0.60;;;0.60;;
40044;SDS011;25735;48.122;11.422;2022-10-16T12:18:40;1.43;;;0.70;;
40044;SDS011;25735;48.122;11.422;2022-10-16T12:21:06;5.07;;;0.93;;
40044;SDS011;25735;48.122;11.422;2022-10-16T12:23:46;0.70;;;0.50;;
40044;SDS011;25735;48.122;11.422;2022-10-16T12:26:11;1.95;;;0.40;;
40044;SDS011;25735;48.122;11.422;2022-10-16T12:28:37;0.50;;;0.50;;
40044;SDS011;25735;48.122;11.422;2022-10-16T12:31:07;0.88;;;0.50;;
40044;SDS011;25735;48.122;11.422;2022-10-16T12:33:40;0.35;;;0.35;;
40044;SDS011;25735;48.122;11.422;2022-10-16T12:36:09;0.40;;;0.40;;
40044;SDS011;25735;48.122;11.422;2022-10-16T12:38:48;0.33;;;0.33;;
40044;SDS011;25735;48.122;11.422;2022-10-16T12:41:23;0.40;;;0.40;;
40044;SDS011;25735;48.122;11.422;2022-10-16T12:43:49;0.93;;;0.28;;
40044;SDS011;25735;48.122;11.422;2022-10-16T12:48:40;0.40;;;0.40;;
40044;SDS011;25735;48.122;11.422;2022-10-16T12:56:33;0.30;;;0.30;;
40044;SDS011;25735;48.122;11.422;2022-10-16T12:59:09;0.35;;;0.30;;
40044;SDS011;25735;48.122;11.422;2022-10-16T13:01:56;2.95;;;1.13;;
40044;SDS011;25735;48.122;11.422;2022-10-16T13:04:31;0.20;;;0.20;;
40044;SDS011;25735;48.122;11.422;2022-10-16T13:07:21;0.93;;;0.30;;
40044;SDS011;25735;48.122;11.422;2022-10-16T13:09:58;0.50;;;0.25;;
40044;SDS011;25735;48.122;11.422;2022-10-16T13:23:05;1.55;;;0.68;;
40044;SDS011;25735;48.122;11.422;2022-10-16T13:28:08;0.30;;;0.30;;
40044;SDS011;25735;48.122;11.422;2022-10-16T13:30:37;1.85;;;0.30;;
40044;SDS011;25735;48.122;11.422;2022-10-16T13:33:07;3.20;;;0.80;;
40044;SDS011;25735;48.122;11.422;2022-10-16T13:35:34;0.40;;;0.40;;
40044;SDS011;25735;48.122;11.422;2022-10-16T13:38:10;1.20;;;0.60;;
40044;SDS011;25735;48.122;11.422;2022-10-16T13:40:36;0.35;;;0.30;;
40044;SDS011;25735;48.122;11.422;2022-10-16T13:43:02;0.40;;;0.30;;
40044;SDS011;25735;48.122;11.422;2022-10-16T13:45:27;0.40;;;0.30;;
40044;SDS011;25735;48.122;11.422;2022-10-16T13:48:02;0.40;;;0.23;;
40044;SDS011;25735;48.122;11.422;2022-10-16T13:50:28;3.05;;;0.40;;
40044;SDS011;25735;48.122;11.422;2022-10-16T13:53:02;0.20;;;0.20;;
40044;SDS011;25735;48.122;11.422;2022-10-16T13:55:28;0.30;;;0.30;;
40044;SDS011;25735;48.122;11.422;2022-10-16T13:57:53;0.50;;;0.40;;
40044;SDS011;25735;48.122;11.422;2022-10-16T14:00:29;0.60;;;0.50;;
40044;SDS011;25735;48.122;11.422;2022-10-16T14:03:11;0.43;;;0.43;;
40044;SDS011;25735;48.122;11.422;2022-10-16T14:05:41;0.45;;;0.43;;
40044;SDS011;25735;48.122;11.422;2022-10-16T14:08:09;0.40;;;0.40;;
40044;SDS011;25735;48.122;11.422;2022-10-16T14:10:36;0.70;;;0.35;;
40044;SDS011;25735;48.122;11.422;2022-10-16T14:13:02;0.67;;;0.37;;
40044;SDS011;25735;48.122;11.422;2022-10-16T14:15:28;0.50;;;0.38;;
40044;SDS011;25735;48.122;11.422;2022-10-16T14:17:54;3.92;;;0.52;;
40044;SDS011;25735;48.122;11.422;2022-10-16T14:20:20;0.55;;;0.40;;
40044;SDS011;25735;48.122;11.422;2022-10-16T14:22:47;0.93;;;0.47;;
40044;SDS011;25735;48.122;11.422;2022-10-16T14:25:24;0.50;;;0.50;;
40044;SDS011;25735;48.122;11.422;2022-10-16T14:30:24;0.50;;;0.50;;
40044;SDS011;25735;48.122;11.422;2022-10-16T14:32:53;2.80;;;0.83;;
40044;SDS011;25735;48.122;11.422;2022-10-16T14:35:31;0.63;;;0.50;;
40044;SDS011;25735;48.122;11.422;2022-10-16T14:37:58;0.40;;;0.40;;
40044;SDS011;25735;48.122;11.422;2022-10-16T14:40:24;0.65;;;0.40;;
40044;SDS011;25735;48.122;11.422;2022-10-16T14:42:50;1.80;;;0.47;;
40044;SDS011;25735;48.122;11.422;2022-10-16T14:45:18;0.55;;;0.40;;
40044;SDS011;25735;48.122;11.422;2022-10-16T14:47:48;0.52;;;0.40;;
40044;SDS011;25735;48.122;11.422;2022-10-16T14:50:14;0.40;;;0.35;;
40044;SDS011;25735;48.122;11.422;2022-10-16T14:52:39;0.33;;;0.33;;
40044;SDS011;25735;48.122;11.422;2022-10-16T14:55:04;0.77;;;0.60;;
40044;SDS011;25735;48.122;11.422;2022-10-16T14:57:30;0.65;;;0.35;;
40044;SDS011;25735;48.122;11.422;2022-10-16T14:59:56;0.40;;;0.40;;
40044;SDS011;25735;48.122;11.422;2022-10-16T15:02:34;0.73;;;0.60;;
40044;SDS011;25735;48.122;11.422;2022-10-16T15:07:43;2.83;;;0.80;;
40044;SDS011;25735;48.122;11.422;2022-10-16T15:10:09;1.15;;;0.40;;
40044;SDS011;25735;48.122;11.422;2022-10-16T15:12:35;1.38;;;0.63;;
40044;SDS011;25735;48.122;11.422;2022-10-16T15:15:00;0.80;;;0.52;;
40044;SDS011;25735;48.122;11.422;2022-10-16T15:17:25;0.83;;;0.50;;
40044;SDS011;25735;48.122;11.422;2022-10-16T15:19:50;0.83;;;0.70;;
40044;SDS011;25735;48.122;11.422;2022-10-16T15:22:16;0.40;;;0.40;;
40044;SDS011;25735;48.122;11.422;2022-10-16T15:24:42;0.60;;;0.60;;
40044;SDS011;25735;48.122;11.422;2022-10-16T15:27:07;1.17;;;0.77;;
40044;SDS011;25735;48.122;11.422;2022-10-16T15:29:32;1.30;;;1.10;;
40044;SDS011;25735;48.122;11.422;2022-10-16T15:31:57;2.03;;;0.73;;
40044;SDS011;25735;48.122;11.422;2022-10-16T15:34:22;1.00;;;0.93;;
40044;SDS011;25735;48.122;11.422;2022-10-16T15:36:47;0.60;;;0.60;;
40044;SDS011;25735;48.122;11.422;2022-10-16T15:39:14;1.37;;;0.63;;
40044;SDS011;25735;48.122;11.422;2022-10-16T15:41:39;0.73;;;0.73;;
40044;SDS011;25735;48.122;11.422;2022-10-16T15:44:05;1.63;;;0.70;;
40044;SDS011;25735;48.122;11.422;2022-10-16T15:46:30;1.17;;;0.70;;
40044;SDS011;25735;48.122;11.422;2022-10-16T15:48:56;3.30;;;0.93;;
40044;SDS011;25735;48.122;11.422;2022-10-16T15:51:22;3.55;;;1.35;;
40044;SDS011;25735;48.122;11.422;2022-10-16T15:53:47;4.07;;;2.40;;
40044;SDS011;25735;48.122;11.422;2022-10-16T15:56:13;7.82;;;3.10;;
40044;SDS011;25735;48.122;11.422;2022-10-16T15:58:38;5.28;;;1.60;;
40044;SDS011;25735;48.122;11.422;2022-10-16T16:01:04;3.10;;;1.85;;
40044;SDS011;25735;48.122;11.422;2022-10-16T16:03:29;1.63;;;1.50;;